GW7202 Weather Reports


time (UTC)temp
F
wind
direction
speed
knots
gust
knots
rain 1hr
in
rain 24hr
in
rain mn
in
humidity
%
barometer
mb
20260906154519 86 101 1.7 6.1 0.00 0.00 0.00 73 1017.0
20260906153009 86 300 1.7 5.2 0.00 0.00 0.00 72 1017.0
20260906151533 85 36 2.6 7.0 0.00 0.00 0.00 73 1016.8
20260906150031 84 98 1.7 5.2 0.00 0.00 0.00 73 1016.8
20260906144532 84 8 1.7 3.5 0.00 0.00 0.00 72 1016.6
20260906143033 84 86 1.7 4.3 0.00 0.00 0.00 74 1016.4
20260906141519 83 36 2.6 5.2 0.00 0.00 0.00 73 1016.5
20260906140029 82 359 1.7 5.2 0.00 0.00 0.00 75 1016.4
20260906134512 82 157 0.9 3.5 0.00 0.00 0.00 78 1016.3
20260906133033 80 34 1.7 4.3 0.00 0.00 0.00 81 1016.2
20260906131540 79 23 1.7 4.3 0.00 0.00 0.00 85 1016.1
20260906130029 78 96 0.9 5.2 0.00 0.00 0.00 87 1016.0
20260906124527 76 321 0.9 2.6 0.00 0.00 0.00 90 1016.1
20260906123024 74 335 0.9 0.9 0.00 0.00 0.00 94 1016.0
20260906121525 73 321 0.0 0.9 0.00 0.00 0.00 94 1015.8
20260906120018 73 321 0.0 0.0 0.00 0.00 0.00 94 1015.6
20260906114514 73 321 0.0 0.0 0.00 0.00 0.00 94 1015.5
20260906113031 73 321 0.0 0.9 0.00 0.00 0.00 94 1015.4
20260906111532 72 307 0.0 0.9 0.00 0.00 0.00 94 1015.3
20260906110028 72 307 0.0 0.9 0.00 0.00 0.00 94 1015.3
20260906104534 72 290 0.0 0.9 0.00 0.00 0.00 94 1015.2
20260906103024 72 290 0.0 0.0 0.00 0.00 0.00 93 1015.1
20260906101523 73 290 0.0 0.9 0.00 0.00 0.00 93 1015.1
20260906100019 72 290 0.0 0.9 0.00 0.00 0.00 94 1014.9
20260906094537 72 32 0.0 0.9 0.00 0.00 0.00 95 1014.8
20260906093036 71 100 0.0 0.0 0.00 0.00 0.00 94 1014.5
20260906091529 71 100 0.0 0.9 0.00 0.00 0.00 94 1014.4
20260906090030 71 100 0.0 0.9 0.00 0.00 0.00 94 1014.3
20260906084542 71 100 0.0 0.9 0.00 0.00 0.00 94 1014.1
20260906083034 71 100 0.0 0.9 0.00 0.00 0.00 94 1014.2
20260906081524 71 100 0.0 0.0 0.00 0.00 0.00 93 1014.2
20260906080028 71 100 0.0 0.0 0.00 0.00 0.00 93 1014.1
20260906074516 72 100 0.0 0.0 0.00 0.00 0.00 93 1014.1
20260906073014 72 100 0.0 0.0 0.00 0.00 0.00 93 1014.3
20260906071508 72 100 0.0 0.0 0.00 0.00 0.00 93 1014.3
20260906070007 72 100 0.0 0.0 0.00 0.00 0.00 92 1014.4
20260906064507 73 100 0.0 0.9 0.00 0.00 0.00 92 1014.5
20260906063026 73 101 0.0 0.0 0.00 0.00 0.00 91 1014.6
20260906061524 73 100 0.0 0.0 0.00 0.00 0.00 91 1014.6
20260906060027 73 101 0.0 0.9 0.00 0.00 0.00 91 1014.5
20260906054517 73 100 0.0 0.0 0.00 0.00 0.00 92 1014.5
20260906053013 73 100 0.0 0.9 0.00 0.00 0.00 91 1014.5
20260906051508 73 100 0.0 0.9 0.00 0.00 0.00 90 1014.4
20260906050009 74 100 0.0 0.0 0.00 0.00 0.00 90 1014.5
20260906044528 74 100 0.0 0.0 0.00 0.00 0.00 89 1014.4
20260906043035 75 100 0.0 0.0 0.00 0.00 0.00 89 1014.5
20260906041527 75 100 0.0 0.9 0.00 0.00 0.00 89 1014.5
20260906040030 75 100 0.0 0.9 0.00 0.00 0.00 88 1014.3
20260906034530 76 100 0.0 0.9 0.00 0.00 0.00 87 1014.3
20260906033023 76 100 0.0 0.0 0.00 0.00 0.00 88 1014.2
20260906031511 76 100 0.0 0.9 0.00 0.00 0.00 86 1014.2
20260906030030 77 101 0.0 0.0 0.00 0.00 0.00 84 1014.1
20260906024531 78 100 0.0 0.0 0.00 0.00 0.00 83 1014.0
20260906023029 79 101 0.0 0.9 0.00 0.00 0.00 80 1013.8
20260906021527 79 100 0.0 2.6 0.00 0.00 0.00 77 1013.7
20260906020024 78 345 0.0 0.9 0.00 0.00 0.00 82 1013.5
20260906014531 79 345 0.0 0.0 0.00 0.00 0.00 80 1013.4
20260906013016 81 345 0.0 0.0 0.00 0.00 0.00 74 1013.1
20260906011517 81 345 0.0 0.9 0.00 0.00 0.00 72 1013.1
20260906010033 81 345 0.0 1.7 0.00 0.00 0.00 79 1012.8
20260906004536 83 30 0.0 0.0 0.00 0.00 0.00 81 1012.7
20260906003044 84 30 0.0 0.9 0.00 0.00 0.00 78 1012.7
20260906001526 86 30 0.0 0.0 0.00 0.00 0.00 73 1012.8
20260906000023 88 29 0.0 0.9 0.00 0.00 0.00 69 1013.0
20260905234517 89 30 0.0 0.9 0.00 0.00 0.00 64 1012.9
20260905233017 92 30 0.0 0.0 0.00 0.00 0.00 57 1013.0
20260905231515 95 30 0.0 0.9 0.00 0.00 0.00 50 1013.0
20260905230015 96 30 0.0 1.7 0.00 0.00 0.00 46 1012.8
20260905224520 98 59 0.9 3.5 0.00 0.00 0.00 43 1012.7
20260905223005 98 36 0.9 3.5 0.00 0.00 0.00 42 1012.9
20260905221504 98 53 1.7 4.3 0.00 0.00 0.00 43 1012.9
20260905220025 99 280 0.9 2.6 0.00 0.00 0.00 40 1012.9
20260905214521 99 89 0.0 3.5 0.00 0.00 0.00 42 1012.8
20260905213034 98 298 1.7 3.5 0.00 0.00 0.00 42 1012.9
20260905211510 98 334 1.7 4.3 0.00 0.00 0.00 39 1012.9
20260905210013 98 300 1.7 4.3 0.00 0.00 0.00 44 1013.1
20260905204506 99 307 0.9 4.3 0.00 0.00 0.00 39 1013.3
20260905203006 98 19 1.7 7.0 0.00 0.00 0.00 43 1013.6
20260905201524 98 21 0.9 6.1 0.00 0.00 0.00 41 1013.8
20260905200024 98 300 2.6 7.0 0.00 0.00 0.00 42 1013.9
20260905194518 99 324 4.3 7.0 0.00 0.00 0.00 42 1014.0
20260905193014 98 14 1.7 4.3 0.00 0.00 0.00 40 1014.0
20260905191513 96 330 1.7 4.3 0.00 0.00 0.00 42 1014.2
20260905190011 99 198 2.6 4.3 0.00 0.00 0.00 40 1014.4
20260905184506 98 293 0.9 5.2 0.00 0.00 0.00 42 1014.6
20260905183025 98 219 0.9 6.1 0.00 0.00 0.00 42 1014.6
20260905181533 97 340 1.7 5.2 0.00 0.00 0.00 42 1014.9
20260905180023 97 86 2.6 6.1 0.00 0.00 0.00 43 1014.9
20260905174518 96 352 2.6 5.2 0.00 0.00 0.00 47 1015.1
20260905173015 96 354 2.6 5.2 0.00 0.00 0.00 49 1015.1
20260905171522 96 300 1.7 4.3 0.00 0.00 0.00 53 1015.3
20260905170007 95 316 1.7 4.3 0.00 0.00 0.00 50 1015.5
20260905164527 94 284 1.7 6.1 0.00 0.00 0.00 53 1015.7
20260905163029 94 270 1.7 3.5 0.00 0.00 0.00 52 1015.8
20260905161526 93 328 2.6 4.3 0.00 0.00 0.00 57 1015.8
20260905160037 92 254 2.6 6.1 0.00 0.00 0.00 53 1015.8